createdAt,value
2023-10-06T00:00:45.539Z,16.45
2023-10-06T00:03:33.314Z,16.06
2023-10-06T00:06:01.339Z,15.79
2023-10-06T00:08:34.449Z,15.56
2023-10-06T00:11:17.135Z,15.84
2023-10-06T00:14:02.367Z,17.96
2023-10-06T00:16:40.680Z,18.75
2023-10-06T00:19:34.857Z,17.81
2023-10-06T00:22:04.929Z,17.00
2023-10-06T00:24:32.997Z,16.52
2023-10-06T00:27:00.779Z,16.18
2023-10-06T00:29:30.569Z,15.92
2023-10-06T00:32:18.519Z,15.70
2023-10-06T00:34:46.588Z,16.06
2023-10-06T00:37:15.103Z,18.01
2023-10-06T00:39:44.087Z,18.91
2023-10-06T00:42:16.131Z,18.11
2023-10-06T00:44:46.754Z,17.27
2023-10-06T00:47:14.928Z,16.70
2023-10-06T00:49:44.775Z,16.29
2023-10-06T00:52:16.897Z,15.95
2023-10-06T00:54:45.164Z,16.09
2023-10-06T00:57:12.992Z,17.90
2023-10-06T00:59:42.861Z,18.93
2023-10-06T01:02:12.537Z,18.13
2023-10-06T01:04:46.878Z,17.27
2023-10-06T01:07:15.163Z,16.65
2023-10-06T01:09:42.931Z,16.24
2023-10-06T01:12:15.137Z,15.89
2023-10-06T01:14:42.878Z,15.57
2023-10-06T01:17:19.742Z,15.81
2023-10-06T01:19:50.624Z,17.76
2023-10-06T01:22:26.428Z,18.84
2023-10-06T01:24:57.162Z,17.96
2023-10-06T01:27:27.876Z,17.00
2023-10-06T01:30:15.759Z,16.32
2023-10-06T01:32:47.103Z,15.78
2023-10-06T01:35:14.959Z,15.85
2023-10-06T01:37:43.406Z,17.58
2023-10-06T01:40:17.244Z,18.74
2023-10-06T01:42:46.850Z,17.92
2023-10-06T01:45:22.495Z,16.97
2023-10-06T01:47:58.205Z,16.29
2023-10-06T01:50:28.107Z,15.81
2023-10-06T01:52:57.434Z,15.89
2023-10-06T01:55:26.015Z,17.62
2023-10-06T01:57:55.602Z,18.74
2023-10-06T02:00:28.229Z,17.97
2023-10-06T02:02:55.932Z,16.98
2023-10-06T02:05:23.964Z,16.28
2023-10-06T02:07:52.953Z,15.79
2023-10-06T02:10:21.036Z,15.86
2023-10-06T02:12:48.796Z,17.59
2023-10-06T02:15:17.784Z,18.75
2023-10-06T02:17:46.040Z,18.03
2023-10-06T02:20:30.446Z,17.08
2023-10-06T02:23:01.445Z,16.36
2023-10-06T02:25:29.642Z,15.89
2023-10-06T02:28:01.111Z,15.97
2023-10-06T02:30:35.428Z,17.74
2023-10-06T02:33:03.291Z,18.83
2023-10-06T02:35:31.070Z,18.02
2023-10-06T02:37:59.451Z,17.04
2023-10-06T02:40:45.541Z,16.34
2023-10-06T02:43:14.806Z,15.78
2023-10-06T02:45:42.564Z,16.16
2023-10-06T02:48:18.029Z,18.02
2023-10-06T02:50:46.090Z,18.78
2023-10-06T02:53:21.897Z,17.86
2023-10-06T02:55:57.233Z,16.93
2023-10-06T02:58:29.239Z,16.29
2023-10-06T03:00:57.523Z,15.82
2023-10-06T03:03:29.508Z,16.23
2023-10-06T03:05:57.905Z,18.16
2023-10-06T03:08:29.368Z,18.72
2023-10-06T03:10:57.676Z,17.75
2023-10-06T03:13:37.333Z,16.89
2023-10-06T03:16:16.872Z,16.23
2023-10-06T03:18:46.006Z,15.80
2023-10-06T03:21:13.762Z,16.72
2023-10-06T03:23:45.431Z,18.51
2023-10-06T03:26:22.903Z,18.51
2023-10-06T03:28:54.451Z,17.42
2023-10-06T03:31:22.540Z,16.60
2023-10-06T03:33:50.778Z,16.02
2023-10-06T03:36:37.204Z,15.57
2023-10-06T03:39:09.318Z,15.91
2023-10-06T03:41:38.956Z,17.82
2023-10-06T03:44:06.818Z,18.76
2023-10-06T03:46:39.760Z,17.88
2023-10-06T03:49:14.841Z,16.88
2023-10-06T03:51:42.710Z,16.16
2023-10-06T03:54:10.899Z,15.65
2023-10-06T03:56:38.647Z,15.23
2023-10-06T03:59:17.116Z,15.47
2023-10-06T04:01:48.153Z,17.36
2023-10-06T04:04:17.224Z,18.41
2023-10-06T04:06:45.571Z,17.56
2023-10-06T04:09:20.436Z,16.55
2023-10-06T04:11:48.490Z,15.82
2023-10-06T04:14:16.312Z,15.74
2023-10-06T04:16:47.230Z,17.39
2023-10-06T04:19:18.219Z,18.52
2023-10-06T04:21:45.994Z,17.67
2023-10-06T04:24:14.980Z,16.68
2023-10-06T04:26:42.779Z,15.94
2023-10-06T04:29:11.043Z,15.47
2023-10-06T04:31:39.111Z,16.51
2023-10-06T04:34:06.967Z,18.28
2023-10-06T04:36:34.941Z,18.42
2023-10-06T04:39:02.701Z,17.31
2023-10-06T04:41:30.341Z,16.39
2023-10-06T04:44:03.531Z,15.75
2023-10-06T04:46:31.349Z,15.73
2023-10-06T04:48:58.976Z,17.43
2023-10-06T04:51:28.501Z,18.49
2023-10-06T04:53:56.393Z,17.65
2023-10-06T04:56:23.985Z,16.72
2023-10-06T04:58:54.248Z,16.04
2023-10-06T05:01:22.277Z,15.53
2023-10-06T05:03:49.950Z,15.62
2023-10-06T05:06:18.662Z,17.39
2023-10-06T05:08:50.673Z,18.39
2023-10-06T05:11:19.088Z,17.51
2023-10-06T05:13:50.616Z,16.60
2023-10-06T05:16:20.523Z,15.91
2023-10-06T05:18:49.139Z,15.42
2023-10-06T05:21:17.021Z,15.04
2023-10-06T05:23:46.668Z,15.35
2023-10-06T05:26:16.951Z,17.26
2023-10-06T05:28:45.807Z,18.17
2023-10-06T05:31:14.147Z,17.28
2023-10-06T05:33:42.489Z,16.38
2023-10-06T05:36:11.426Z,15.73
2023-10-06T05:38:39.551Z,15.29
2023-10-06T05:41:13.580Z,16.12
2023-10-06T05:43:42.061Z,18.01
2023-10-06T05:46:10.885Z,18.09
2023-10-06T05:48:40.095Z,17.09
2023-10-06T05:51:11.846Z,16.27
2023-10-06T05:53:40.767Z,15.70
2023-10-06T05:56:09.073Z,16.16
2023-10-06T05:58:39.370Z,17.98
2023-10-06T06:01:07.908Z,18.69
2023-10-06T06:03:36.557Z,17.71
2023-10-06T06:06:09.604Z,16.75
2023-10-06T06:08:39.134Z,16.04
2023-10-06T06:11:07.358Z,15.95
2023-10-06T06:13:35.554Z,17.56
2023-10-06T06:16:03.868Z,18.62
2023-10-06T06:18:32.234Z,17.77
2023-10-06T06:21:00.100Z,16.76
2023-10-06T06:23:27.772Z,16.04
2023-10-06T06:25:55.863Z,16.04
2023-10-06T06:28:23.913Z,17.73
2023-10-06T06:30:51.980Z,18.83
2023-10-06T06:33:21.079Z,18.06
2023-10-06T06:35:48.696Z,17.07
2023-10-06T06:38:18.837Z,16.37
2023-10-06T06:40:47.441Z,16.38
2023-10-06T06:43:15.221Z,18.09
2023-10-06T06:45:42.927Z,19.03
2023-10-06T06:48:18.509Z,18.22
2023-10-06T06:50:47.693Z,17.24
2023-10-06T06:53:15.389Z,16.56
2023-10-06T06:55:44.376Z,16.32
2023-10-06T06:58:12.899Z,17.81
2023-10-06T07:00:41.242Z,18.95
2023-10-06T07:03:09.732Z,18.17
2023-10-06T07:05:37.518Z,17.17
2023-10-06T07:08:06.450Z,16.44
2023-10-06T07:10:34.436Z,16.83
2023-10-06T07:13:02.323Z,18.47
2023-10-06T07:15:30.588Z,18.40
2023-10-06T07:17:59.150Z,17.22
2023-10-06T07:20:28.566Z,16.29
2023-10-06T07:22:57.232Z,16.07
2023-10-06T07:25:28.191Z,17.69
2023-10-06T07:27:56.688Z,18.29
2023-10-06T07:30:24.496Z,17.31
2023-10-06T07:32:58.416Z,16.41
2023-10-06T07:35:38.551Z,15.74
2023-10-06T07:38:06.400Z,15.82
2023-10-06T07:40:34.103Z,17.65
2023-10-06T07:43:04.132Z,18.60
2023-10-06T07:45:33.131Z,17.69
2023-10-06T07:48:00.937Z,16.71
2023-10-06T07:50:30.419Z,16.04
2023-10-06T07:52:58.625Z,15.58
2023-10-06T07:55:26.357Z,16.63
2023-10-06T07:57:54.738Z,18.36
2023-10-06T08:00:33.841Z,18.24
2023-10-06T08:03:01.574Z,17.15
2023-10-06T08:05:30.984Z,16.39
2023-10-06T08:08:01.981Z,15.86
2023-10-06T08:10:32.230Z,16.00
2023-10-06T08:13:03.355Z,17.84
2023-10-06T08:15:34.114Z,18.67
2023-10-06T08:18:02.151Z,17.72
2023-10-06T08:20:31.672Z,16.86
2023-10-06T08:22:59.807Z,16.22
2023-10-06T08:25:27.804Z,15.76
2023-10-06T08:27:56.251Z,15.95
2023-10-06T08:30:24.341Z,17.77
2023-10-06T08:32:55.047Z,18.69
2023-10-06T08:35:22.933Z,17.82
2023-10-06T08:37:51.335Z,16.98
2023-10-06T08:40:20.953Z,16.40
2023-10-06T08:42:52.717Z,15.97
2023-10-06T08:45:23.657Z,15.61
2023-10-06T08:48:01.705Z,15.92
2023-10-06T08:50:31.817Z,17.96
2023-10-06T08:52:59.758Z,18.88
2023-10-06T08:55:29.140Z,18.09
2023-10-06T08:58:02.846Z,17.23
2023-10-06T09:00:35.793Z,16.58
2023-10-06T09:03:13.064Z,16.15
2023-10-06T09:05:40.968Z,15.84
2023-10-06T09:08:10.313Z,16.05
2023-10-06T09:10:38.341Z,17.99
2023-10-06T09:13:07.343Z,19.19
2023-10-06T09:15:36.911Z,18.50
2023-10-06T09:18:04.833Z,17.57
2023-10-06T09:20:33.335Z,16.95
2023-10-06T09:23:01.401Z,16.52
2023-10-06T09:25:29.231Z,16.25
2023-10-06T09:27:59.757Z,16.53
2023-10-06T09:30:28.035Z,18.45
2023-10-06T09:32:56.251Z,19.67
2023-10-06T09:35:24.458Z,19.07
2023-10-06T09:37:56.103Z,18.27
2023-10-06T09:40:24.211Z,17.70
2023-10-06T09:42:51.981Z,17.39
2023-10-06T09:45:19.744Z,17.22
2023-10-06T09:47:47.558Z,17.10
2023-10-06T09:50:16.018Z,16.97
2023-10-06T09:52:45.185Z,16.82
2023-10-06T09:55:13.051Z,16.61
2023-10-06T09:57:40.814Z,16.91
2023-10-06T10:00:16.861Z,18.83
2023-10-06T10:02:46.373Z,19.46
2023-10-06T10:05:14.959Z,18.66
2023-10-06T10:07:42.729Z,17.91
2023-10-06T10:10:12.352Z,17.48
2023-10-06T10:12:40.299Z,17.22
2023-10-06T10:15:13.459Z,17.08
2023-10-06T10:17:41.282Z,16.98
2023-10-06T10:20:10.992Z,16.92
2023-10-06T10:22:39.038Z,16.82
2023-10-06T10:25:24.015Z,16.66
2023-10-06T10:27:52.654Z,16.49
2023-10-06T10:30:20.334Z,16.36
2023-10-06T10:32:47.957Z,16.23
2023-10-06T10:35:15.736Z,16.13
2023-10-06T10:37:43.748Z,16.56
2023-10-06T10:40:13.876Z,18.60
2023-10-06T10:42:42.144Z,20.02
2023-10-06T10:45:09.906Z,19.59
2023-10-06T10:47:38.364Z,18.84
2023-10-06T10:50:06.770Z,18.35
2023-10-06T10:52:35.035Z,18.05
2023-10-06T10:55:02.680Z,17.86
2023-10-06T10:57:30.305Z,17.66
2023-10-06T10:59:57.898Z,17.49
2023-10-06T11:02:25.819Z,17.34
2023-10-06T11:04:53.510Z,17.16
2023-10-06T11:07:21.154Z,17.00
2023-10-06T11:09:48.801Z,16.84
2023-10-06T11:14:51.131Z,16.58
2023-10-06T11:17:19.168Z,16.53
2023-10-06T11:19:46.901Z,16.51
2023-10-06T11:22:15.022Z,16.45
2023-10-06T11:24:44.586Z,16.38
2023-10-06T11:27:13.188Z,16.30
2023-10-06T11:29:41.131Z,16.24
2023-10-06T11:32:09.017Z,16.23
2023-10-06T11:34:36.970Z,16.23
2023-10-06T11:37:06.520Z,16.81
2023-10-06T11:39:34.185Z,18.93
2023-10-06T11:42:04.946Z,19.81
2023-10-06T11:44:36.653Z,19.23
2023-10-06T11:47:05.503Z,18.64
2023-10-06T11:49:34.828Z,18.24
2023-10-06T11:52:02.461Z,17.96
2023-10-06T11:54:30.933Z,17.82
2023-10-06T11:56:58.510Z,17.75
2023-10-06T11:59:26.112Z,17.69
2023-10-06T12:01:54.364Z,17.63
2023-10-06T12:04:22.196Z,17.55
2023-10-06T12:06:52.232Z,17.44
2023-10-06T12:09:19.833Z,17.36
2023-10-06T12:11:47.497Z,17.33
2023-10-06T12:14:15.284Z,17.35
2023-10-06T12:16:46.322Z,17.38
2023-10-06T12:19:15.230Z,17.42
2023-10-06T12:21:42.950Z,17.44
2023-10-06T12:24:12.975Z,17.47
2023-10-06T12:26:41.015Z,17.46
2023-10-06T12:29:08.684Z,17.40
2023-10-06T12:31:36.369Z,17.33
2023-10-06T12:34:05.492Z,17.28
2023-10-06T12:36:33.352Z,17.25
2023-10-06T12:39:01.006Z,17.24
2023-10-06T12:41:28.768Z,17.26
2023-10-06T12:44:03.685Z,17.30
2023-10-06T12:46:34.886Z,17.33
2023-10-06T12:49:06.494Z,17.33
2023-10-06T12:51:34.114Z,17.30
2023-10-06T12:54:01.722Z,17.26
2023-10-06T12:56:32.744Z,17.23
2023-10-06T12:59:00.476Z,17.21
2023-10-06T13:01:32.111Z,17.22
2023-10-06T13:04:00.737Z,17.21
2023-10-06T13:06:31.241Z,17.23
2023-10-06T13:09:03.201Z,17.25
2023-10-06T13:11:30.841Z,17.27
2023-10-06T13:13:58.842Z,17.27
2023-10-06T13:16:26.581Z,17.27
2023-10-06T13:18:54.242Z,17.26
2023-10-06T13:21:21.864Z,17.25
2023-10-06T13:23:49.553Z,17.24
2023-10-06T13:26:35.751Z,17.22
2023-10-06T13:29:07.902Z,17.21
2023-10-06T13:31:35.586Z,17.22
2023-10-06T13:34:03.909Z,17.22
2023-10-06T13:36:32.267Z,17.24
2023-10-06T13:38:59.862Z,17.26
2023-10-06T13:41:27.827Z,17.28
2023-10-06T13:43:55.765Z,17.30
2023-10-06T13:46:24.956Z,17.33
2023-10-06T13:48:52.641Z,17.34
2023-10-06T13:51:20.423Z,17.32
2023-10-06T13:53:48.004Z,17.30
2023-10-06T13:56:15.694Z,17.28
2023-10-06T13:58:43.329Z,17.27
2023-10-06T14:01:13.029Z,17.26
2023-10-06T14:03:40.829Z,17.26
2023-10-06T14:06:09.145Z,17.27
2023-10-06T14:08:37.224Z,17.28
2023-10-06T14:11:05.123Z,17.29
2023-10-06T14:13:34.987Z,17.30
2023-10-06T14:16:10.704Z,17.30
2023-10-06T14:18:40.305Z,17.31
2023-10-06T14:21:08.014Z,17.32
2023-10-06T14:23:37.340Z,17.34
2023-10-06T14:26:10.737Z,17.36
2023-10-06T14:28:38.490Z,17.40
2023-10-06T14:31:25.311Z,17.44
2023-10-06T14:34:19.473Z,17.49
2023-10-06T14:36:47.988Z,17.51
2023-10-06T14:39:34.563Z,17.50
2023-10-06T14:42:02.170Z,17.46
2023-10-06T14:44:48.499Z,17.42
2023-10-06T14:47:16.710Z,17.38
2023-10-06T14:49:45.499Z,17.34
2023-10-06T14:52:14.450Z,17.30
2023-10-06T14:54:42.350Z,17.27
2023-10-06T14:57:10.005Z,17.22
2023-10-06T14:59:38.552Z,17.19
2023-10-06T15:02:11.880Z,17.16
2023-10-06T15:04:40.681Z,17.13
2023-10-06T15:07:10.392Z,17.09
2023-10-06T15:09:39.847Z,17.06
2023-10-06T15:12:07.900Z,17.03
2023-10-06T15:14:38.024Z,17.00
2023-10-06T15:17:06.536Z,16.98
2023-10-06T15:19:37.858Z,16.94
2023-10-06T15:22:09.939Z,16.90
2023-10-06T15:24:38.854Z,16.87
2023-10-06T15:27:08.269Z,16.83
2023-10-06T15:29:36.247Z,16.79
2023-10-06T15:32:06.626Z,16.75
2023-10-06T15:34:36.708Z,16.71
2023-10-06T15:37:06.032Z,16.68
2023-10-06T15:39:34.067Z,16.64
2023-10-06T15:42:02.547Z,16.61
2023-10-06T15:44:30.270Z,16.58
2023-10-06T15:46:58.501Z,16.53
2023-10-06T15:49:26.928Z,16.50
2023-10-06T15:51:54.642Z,16.46
2023-10-06T15:54:23.601Z,16.43
2023-10-06T15:56:52.179Z,16.39
2023-10-06T15:59:21.743Z,16.35
2023-10-06T16:01:50.355Z,16.31
2023-10-06T16:04:19.257Z,16.26
2023-10-06T16:06:48.156Z,16.23
2023-10-06T16:09:19.124Z,16.20
2023-10-06T16:11:47.578Z,16.15
2023-10-06T16:14:17.753Z,16.10
2023-10-06T16:16:47.420Z,16.06
2023-10-06T16:19:15.841Z,16.02
2023-10-06T16:21:43.784Z,15.99
2023-10-06T16:24:13.724Z,15.94
2023-10-06T16:26:42.286Z,15.91
2023-10-06T16:29:11.718Z,15.87
2023-10-06T16:31:39.722Z,15.82
2023-10-06T16:34:07.769Z,16.15
2023-10-06T16:36:36.349Z,18.06
2023-10-06T16:39:17.559Z,19.48
2023-10-06T16:41:46.396Z,18.92
2023-10-06T16:44:16.371Z,18.15
2023-10-06T16:46:44.366Z,17.62
2023-10-06T16:49:12.185Z,17.28
2023-10-06T16:51:40.944Z,17.03
2023-10-06T16:54:11.331Z,16.83
2023-10-06T16:56:39.512Z,16.65
2023-10-06T16:59:07.769Z,16.49
2023-10-06T17:01:36.117Z,16.33
2023-10-06T17:04:07.831Z,16.19
2023-10-06T17:06:36.800Z,16.07
2023-10-06T17:09:15.234Z,15.96
2023-10-06T17:11:44.736Z,16.31
2023-10-06T17:14:13.228Z,18.29
2023-10-06T17:16:44.434Z,19.53
2023-10-06T17:19:13.823Z,18.89
2023-10-06T17:21:43.929Z,18.05
2023-10-06T17:24:12.636Z,17.47
2023-10-06T17:26:41.250Z,17.07
2023-10-06T17:29:09.861Z,16.77
2023-10-06T17:31:38.074Z,16.53
2023-10-06T17:34:10.712Z,16.33
2023-10-06T17:36:40.372Z,16.16
2023-10-06T17:39:13.135Z,16.00
2023-10-06T17:41:41.650Z,15.86
2023-10-06T17:44:10.615Z,15.74
2023-10-06T17:46:39.559Z,15.99
2023-10-06T17:49:12.065Z,17.92
2023-10-06T17:51:42.270Z,19.24
2023-10-06T17:54:11.942Z,18.63
2023-10-06T17:56:45.322Z,17.79
2023-10-06T17:59:16.945Z,17.26
2023-10-06T18:01:44.929Z,16.90
2023-10-06T18:04:13.879Z,16.63
2023-10-06T18:06:41.626Z,16.42
2023-10-06T18:09:10.332Z,16.24
2023-10-06T18:11:38.133Z,16.08
2023-10-06T18:14:05.765Z,15.92
2023-10-06T18:16:33.609Z,15.79
2023-10-06T18:19:01.956Z,15.66
2023-10-06T18:21:31.451Z,15.98
2023-10-06T18:24:00.737Z,17.94
2023-10-06T18:26:29.035Z,19.23
2023-10-06T18:28:56.730Z,18.62
2023-10-06T18:31:26.526Z,17.80
2023-10-06T18:33:54.382Z,17.24
2023-10-06T18:36:22.252Z,16.86
2023-10-06T18:38:51.758Z,16.59
2023-10-06T18:41:19.423Z,16.37
2023-10-06T18:43:47.106Z,16.17
2023-10-06T18:46:15.907Z,16.01
2023-10-06T18:48:43.835Z,15.86
2023-10-06T18:51:12.451Z,15.72
2023-10-06T18:53:45.463Z,16.04
2023-10-06T18:56:14.924Z,18.00
2023-10-06T18:58:42.712Z,19.24
2023-10-06T19:01:10.591Z,18.59
2023-10-06T19:03:39.723Z,17.73
2023-10-06T19:06:08.576Z,17.14
2023-10-06T19:08:46.049Z,16.70
2023-10-06T19:11:15.432Z,16.36
2023-10-06T19:13:43.225Z,16.08
2023-10-06T19:16:11.613Z,15.83
2023-10-06T19:18:40.014Z,15.60
2023-10-06T19:21:08.021Z,15.85
2023-10-06T19:23:36.763Z,17.73
2023-10-06T19:26:06.552Z,19.06
2023-10-06T19:28:34.570Z,18.47
2023-10-06T19:31:02.421Z,17.62
2023-10-06T19:33:30.071Z,17.05
2023-10-06T19:35:57.752Z,16.65
2023-10-06T19:38:25.467Z,16.37
2023-10-06T19:40:53.263Z,16.13
2023-10-06T19:43:22.503Z,15.91
2023-10-06T19:45:53.049Z,15.72
2023-10-06T19:48:21.658Z,15.97
2023-10-06T19:50:51.897Z,17.90
2023-10-06T19:53:24.832Z,19.15
2023-10-06T19:55:54.488Z,18.46
2023-10-06T19:58:26.021Z,17.59
2023-10-06T20:00:53.826Z,17.03
2023-10-06T20:03:21.677Z,16.61
2023-10-06T20:05:50.863Z,16.29
2023-10-06T20:08:21.194Z,16.04
2023-10-06T20:10:49.903Z,15.80
2023-10-06T20:13:17.722Z,15.60
2023-10-06T20:15:51.546Z,15.81
2023-10-06T20:18:21.988Z,17.80
2023-10-06T20:20:53.795Z,19.01
2023-10-06T20:23:23.039Z,18.27
2023-10-06T20:25:54.110Z,17.40
2023-10-06T20:28:23.228Z,16.77
2023-10-06T20:30:51.695Z,16.34
2023-10-06T20:33:19.710Z,16.00
2023-10-06T20:35:48.324Z,15.75
2023-10-06T20:38:18.200Z,15.92
2023-10-06T20:40:47.784Z,17.76
2023-10-06T20:43:16.313Z,19.02
2023-10-06T20:45:48.027Z,18.33
2023-10-06T20:48:16.564Z,17.39
2023-10-06T20:50:44.393Z,16.75
2023-10-06T20:53:12.237Z,16.29
2023-10-06T20:55:40.028Z,15.95
2023-10-06T20:58:07.968Z,15.66
2023-10-06T21:00:35.666Z,15.80
2023-10-06T21:03:03.642Z,17.59
2023-10-06T21:05:31.675Z,18.84
2023-10-06T21:07:59.664Z,18.17
2023-10-06T21:10:27.715Z,17.25
2023-10-06T21:12:55.545Z,16.59
2023-10-06T21:15:25.001Z,16.12
2023-10-06T21:17:56.082Z,15.76
2023-10-06T21:20:24.507Z,15.45
2023-10-06T21:22:52.626Z,15.58
2023-10-06T21:25:20.402Z,17.35
2023-10-06T21:27:48.170Z,18.56
2023-10-06T21:30:18.893Z,17.81
2023-10-06T21:32:46.881Z,16.89
2023-10-06T21:35:16.035Z,16.23
2023-10-06T21:37:45.998Z,15.76
2023-10-06T21:40:14.493Z,15.41
2023-10-06T21:42:42.523Z,15.14
2023-10-06T21:45:10.567Z,15.31
2023-10-06T21:47:38.524Z,17.11
2023-10-06T21:50:06.384Z,18.42
2023-10-06T21:52:34.148Z,17.74
2023-10-06T21:55:02.039Z,16.82
2023-10-06T21:57:36.151Z,16.16
2023-10-06T22:00:12.704Z,15.69
2023-10-06T22:02:42.525Z,15.34
2023-10-06T22:05:11.737Z,15.07
2023-10-06T22:07:41.221Z,14.85
2023-10-06T22:10:10.410Z,15.08
2023-10-06T22:12:38.786Z,16.98
2023-10-06T22:15:06.458Z,18.22
2023-10-06T22:17:36.180Z,17.58
2023-10-06T22:20:04.662Z,16.73
2023-10-06T22:22:33.487Z,16.13
2023-10-06T22:25:01.513Z,15.70
2023-10-06T22:27:30.432Z,15.37
2023-10-06T22:30:00.994Z,15.09
2023-10-06T22:32:28.983Z,14.85
2023-10-06T22:34:56.891Z,15.10
2023-10-06T22:37:27.214Z,16.98
2023-10-06T22:39:56.456Z,18.28
2023-10-06T22:42:24.054Z,17.61
2023-10-06T22:44:53.451Z,16.76
2023-10-06T22:47:22.330Z,16.12
2023-10-06T22:49:51.998Z,15.70
2023-10-06T22:52:19.821Z,15.39
2023-10-06T22:54:47.574Z,15.16
2023-10-06T22:57:15.339Z,14.96
2023-10-06T22:59:43.104Z,14.79
2023-10-06T23:02:11.235Z,15.07
2023-10-06T23:04:39.085Z,16.97
2023-10-06T23:07:06.809Z,18.26
2023-10-06T23:09:36.716Z,17.63
2023-10-06T23:12:06.054Z,16.79
2023-10-06T23:14:33.897Z,16.19
2023-10-06T23:17:05.711Z,15.77
2023-10-06T23:19:35.613Z,15.48
2023-10-06T23:22:03.485Z,15.23
2023-10-06T23:24:49.271Z,15.03
2023-10-06T23:27:17.900Z,14.83
2023-10-06T23:29:45.738Z,15.16
2023-10-06T23:32:13.712Z,17.08
2023-10-06T23:34:43.526Z,18.38
2023-10-06T23:37:13.873Z,17.73
2023-10-06T23:39:41.634Z,16.86
2023-10-06T23:42:20.662Z,16.24
2023-10-06T23:44:49.273Z,15.79
2023-10-06T23:47:20.021Z,15.48
2023-10-06T23:49:47.980Z,15.24
2023-10-06T23:52:15.918Z,15.04
2023-10-06T23:54:43.682Z,14.88
2023-10-06T23:57:17.502Z,15.14
2023-10-06T23:59:49.416Z,17.11
